Buoy 51659

sailwx.info

Track history (hours):
 
Tides and Currents Weather Stations Pressure Air Temp Water Temp Dewpoint Dewpoint Depression Visibility Wind Speed Wind Dir Waves Ship Positions

Drifting buoy 51659

Last reported at 2016-May-26 08:00 UTC. Time now 2016-May-26 14:33 UTC.
Position S 07°33' W 175°15'.

Water temperature 30.4 ° C

Date/timePositionNaut miles runAvg speedWind from/ knotsBaromVisibWave heightAir tempDewpointWater temp
2016-May-26 08:00S 07°33' W 175°15'3 1.0 30.4
2016-May-26 05:00S 07°30' W 175°15'1 1.1 30.5
2016-May-26 04:00S 07°30' W 175°17'2 0.9 30.6
2016-May-26 02:00S 07°28' W 175°16'0 0.0 30.6
2016-May-26 01:00S 07°28' W 175°16'3 0.7 30.5
2016-May-25 20:00S 07°26' W 175°13'2 0.5 30.3
2016-May-25 17:00S 07°25' W 175°14'0 0.0 30.3
2016-May-25 16:00S 07°25' W 175°14'4 2.0 30.3
2016-May-25 14:00S 07°22' W 175°12'2 0.3 30.3
2016-May-25 09:00S 07°21' W 175°10'1 1.0 30.3
2016-May-25 08:00S 07°20' W 175°11'1 0.7 30.3
2016-May-25 06:00S 07°21' W 175°09'0 0.3 30.3
2016-May-25 05:00S 07°21' W 175°09'2 0.9 30.4
2016-May-25 03:00S 07°21' W 175°07'0 0.0 30.4
2016-May-25 02:00S 07°21' W 175°07'0 0.5 30.4
2016-May-25 01:00S 07°22' W 175°08'5 0.7 30.4
2016-May-24 17:00S 07°23' W 175°02'1 1.4 30.3
2016-May-24 16:00S 07°22' W 175°04'4 1.8 30.3
2016-May-24 14:00S 07°25' W 175°01'0 0.0 30.3
2016-May-24 10:00S 07°25' W 175°01'1 0.7 30.3
2016-May-24 09:00S 07°25' W 175°02'0 0.0 30.3
2016-May-24 08:00S 07°25' W 175°02'1 1.3 30.4
2016-May-24 07:00S 07°25' W 175°00'0 0.0 30.4
2016-May-24 06:00S 07°25' W 175°00'0 0.4 30.4
2016-May-24 05:00S 07°25' W 175°01'1 0.7 30.4
2016-May-24 04:00S 07°26' W 175°01'0 0.5 30.5
2016-May-24 03:00S 07°26' W 175°00'0 0.1 30.5
2016-May-24 01:00S 07°27' W 175°00'3 0.4 30.4
2016-May-23 17:00S 07°29' W 175°00'1 1.0 30.4
2016-May-23 16:00S 07°30' W 175°01'1 0.4 30.4
2016-May-23 14:00S 07°30' W 175°02'0 0.0 30.4
2016-May-23 10:00S 07°30' W 175°02'0 0.1 30.5
2016-May-23 08:00S 07°30' W 175°02'1 0.5 30.6
2016-May-23 05:00S 07°30' W 175°03'1 0.9 30.9
2016-May-23 04:00S 07°30' W 175°02'1 1.0 31.0
2016-May-23 03:00S 07°30' W 175°03'1 0.3 31.3
2016-May-23 01:00S 07°30' W 175°04'1 0.2 31.3
2016-May-22 20:00S 07°29' W 175°04'2 0.7 30.4
2016-May-22 17:00S 07°28' W 175°06'1 0.3 30.3
2016-May-22 13:00S 07°27' W 175°06'1 0.2 30.4
2016-May-22 09:00S 07°26' W 175°06'3 0.5 30.6
2016-May-22 04:00S 07°24' W 175°06'0 0.0 31.0
2016-May-22 02:00S 07°24' W 175°06'0 0.1 31.5
2016-May-22 01:00S 07°24' W 175°06'1 0.4 31.3
2016-May-21 22:00S 07°23' W 175°05'0 0.1 30.7
2016-May-21 20:00S 07°23' W 175°05'1 0.3 30.3
2016-May-21 18:00S 07°23' W 175°05'1 0.4 30.2
2016-May-21 15:00S 07°21' W 175°05'0 0.0 30.3
2016-May-21 14:00S 07°21' W 175°05'1 1.3 30.3
2016-May-21 13:00S 07°23' W 175°04'0 0.0 30.3
2016-May-21 10:00S 07°23' W 175°04'1 0.4 30.3
2016-May-21 08:00S 07°23' W 175°04'1 1.1 30.4
2016-May-21 07:00S 07°22' W 175°03'0 0.1 30.4
2016-May-21 05:00S 07°22' W 175°03'1 0.3 30.5
2016-May-21 02:00S 07°22' W 175°02'0 0.0 30.8
2016-May-21 01:00S 07°22' W 175°02'1 0.2 31.0
2016-May-20 20:00S 07°23' W 175°01'1 0.1 30.3
2016-May-20 16:00S 07°22' W 175°02'1 0.4 30.2
2016-May-20 13:00S 07°23' W 175°01'1 0.2 30.2
2016-May-20 09:00S 07°24' W 175°01'1 0.5 30.3
2016-May-20 08:00S 07°24' W 175°01'1 0.4 30.3
2016-May-20 06:00S 07°24' W 175°02'1 1.0 30.4
2016-May-20 05:00S 07°23' W 175°03'0 0.0 30.4
2016-May-20 04:00S 07°23' W 175°03'1 0.5 30.5
2016-May-20 02:00S 07°23' W 175°04'0 0.0 30.5
2016-May-20 01:00S 07°23' W 175°04'1 0.1 30.7
2016-May-19 20:00S 07°23' W 175°03'1 0.5 30.2
2016-May-19 19:00S 07°23' W 175°04'1 0.4 30.2
2016-May-19 17:00S 07°23' W 175°04'1 1.4 30.2
2016-May-19 16:00S 07°21' W 175°04'1 0.2 30.2
2016-May-19 13:00S 07°21' W 175°05'1 0.2 30.2
2016-May-19 09:00S 07°21' W 175°05'0 0.0 30.2
2016-May-19 08:00S 07°21' W 175°05'2 0.7 30.2
2016-May-19 05:00S 07°20' W 175°04'1 0.7 30.2
2016-May-19 04:00S 07°19' W 175°04'1 0.6 30.2
2016-May-19 02:00S 07°18' W 175°05'1 0.1 30.2
2016-May-18 20:00S 07°18' W 175°06'1 0.4 30.3
2016-May-18 18:00S 07°17' W 175°06'2 1.2 30.3
2016-May-18 16:00S 07°15' W 175°06'2 0.7 30.3
2016-May-18 13:00S 07°13' W 175°07'1 0.3 30.3
2016-May-18 08:00S 07°12' W 175°06'2 0.6 30.3
2016-May-18 05:00S 07°10' W 175°07'1 1.5 30.4
2016-May-18 04:00S 07°09' W 175°07'4 0.5 30.4
2016-May-17 20:00S 07°05' W 175°06'0 0.3 30.3
2016-May-17 19:00S 07°05' W 175°05'1 0.5 30.3
2016-May-17 17:00S 07°04' W 175°05'2 2.0 30.3
2016-May-17 16:00S 07°02' W 175°04'4 1.8 30.3
2016-May-17 14:00S 07°00' W 175°00'0 0.0 30.3
2016-May-17 10:00S 07°00' W 175°00'1 0.6 30.3
2016-May-17 09:00S 07°01' W 174°60'0 0.1 30.4
2016-May-17 08:00S 07°01' W 174°60'1 0.5 30.4
2016-May-17 06:00S 06°60' W 174°60'1 0.6 30.4
2016-May-17 05:00S 06°60' W 174°59'2 0.7 30.5
2016-May-17 02:00S 06°59' W 174°57'1 0.6 30.5
2016-May-17 01:00S 06°60' W 174°57'2 0.6 30.5
2016-May-16 22:00S 06°58' W 174°56'0 0.0 30.4
2016-May-16 20:00S 06°58' W 174°56'1 0.4 30.3
2016-May-16 17:00S 06°58' W 174°55'0 0.0 30.3
2016-May-16 16:00S 06°58' W 174°55'1 0.5 30.3
2016-May-16 14:00S 06°57' W 174°54'0 0.0 30.3
2016-May-16 10:00S 06°57' W 174°54'1 0.4 30.3
2016-May-16 08:00S 06°58' W 174°55'   30.4
Track history (hours):
 
Tides and Currents Weather Stations Pressure Air Temp Water Temp Dewpoint Dewpoint Depression Visibility Wind Speed Wind Dir Waves Ship Positions

Drifting buoy 51659

Last reported at 2016-May-26 08:00 UTC. Time now 2016-May-26 14:33 UTC.
Position S 07°33' W 175°15'.

Water temperature 30.4 ° C

Date/timePositionNaut miles runAvg speedWind from/ knotsBaromVisibWave heightAir tempDewpointWater temp
2016-May-26 08:00S 07°33' W 175°15'3 1.0 30.4
2016-May-26 05:00S 07°30' W 175°15'1 1.1 30.5
2016-May-26 04:00S 07°30' W 175°17'2 0.9 30.6
2016-May-26 02:00S 07°28' W 175°16'0 0.0 30.6
2016-May-26 01:00S 07°28' W 175°16'3 0.7 30.5
2016-May-25 20:00S 07°26' W 175°13'2 0.5 30.3
2016-May-25 17:00S 07°25' W 175°14'0 0.0 30.3
2016-May-25 16:00S 07°25' W 175°14'4 2.0 30.3
2016-May-25 14:00S 07°22' W 175°12'2 0.3 30.3
2016-May-25 09:00S 07°21' W 175°10'1 1.0 30.3
2016-May-25 08:00S 07°20' W 175°11'1 0.7 30.3
2016-May-25 06:00S 07°21' W 175°09'0 0.3 30.3
2016-May-25 05:00S 07°21' W 175°09'2 0.9 30.4
2016-May-25 03:00S 07°21' W 175°07'0 0.0 30.4
2016-May-25 02:00S 07°21' W 175°07'0 0.5 30.4
2016-May-25 01:00S 07°22' W 175°08'5 0.7 30.4
2016-May-24 17:00S 07°23' W 175°02'1 1.4 30.3
2016-May-24 16:00S 07°22' W 175°04'4 1.8 30.3
2016-May-24 14:00S 07°25' W 175°01'0 0.0 30.3
2016-May-24 10:00S 07°25' W 175°01'1 0.7 30.3
2016-May-24 09:00S 07°25' W 175°02'0 0.0 30.3
2016-May-24 08:00S 07°25' W 175°02'1 1.3 30.4
2016-May-24 07:00S 07°25' W 175°00'0 0.0 30.4
2016-May-24 06:00S 07°25' W 175°00'0 0.4 30.4
2016-May-24 05:00S 07°25' W 175°01'1 0.7 30.4
2016-May-24 04:00S 07°26' W 175°01'0 0.5 30.5
2016-May-24 03:00S 07°26' W 175°00'0 0.1 30.5
2016-May-24 01:00S 07°27' W 175°00'3 0.4 30.4
2016-May-23 17:00S 07°29' W 175°00'1 1.0 30.4
2016-May-23 16:00S 07°30' W 175°01'1 0.4 30.4
2016-May-23 14:00S 07°30' W 175°02'0 0.0 30.4
2016-May-23 10:00S 07°30' W 175°02'0 0.1 30.5
2016-May-23 08:00S 07°30' W 175°02'1 0.5 30.6
2016-May-23 05:00S 07°30' W 175°03'1 0.9 30.9
2016-May-23 04:00S 07°30' W 175°02'1 1.0 31.0
2016-May-23 03:00S 07°30' W 175°03'1 0.3 31.3
2016-May-23 01:00S 07°30' W 175°04'1 0.2 31.3
2016-May-22 20:00S 07°29' W 175°04'2 0.7 30.4
2016-May-22 17:00S 07°28' W 175°06'1 0.3 30.3
2016-May-22 13:00S 07°27' W 175°06'1 0.2 30.4
2016-May-22 09:00S 07°26' W 175°06'3 0.5 30.6
2016-May-22 04:00S 07°24' W 175°06'0 0.0 31.0
2016-May-22 02:00S 07°24' W 175°06'0 0.1 31.5
2016-May-22 01:00S 07°24' W 175°06'1 0.4 31.3
2016-May-21 22:00S 07°23' W 175°05'0 0.1 30.7
2016-May-21 20:00S 07°23' W 175°05'1 0.3 30.3
2016-May-21 18:00S 07°23' W 175°05'1 0.4 30.2
2016-May-21 15:00S 07°21' W 175°05'0 0.0 30.3
2016-May-21 14:00S 07°21' W 175°05'1 1.3 30.3
2016-May-21 13:00S 07°23' W 175°04'0 0.0 30.3
2016-May-21 10:00S 07°23' W 175°04'1 0.4 30.3
2016-May-21 08:00S 07°23' W 175°04'1 1.1 30.4
2016-May-21 07:00S 07°22' W 175°03'0 0.1 30.4
2016-May-21 05:00S 07°22' W 175°03'1 0.3 30.5
2016-May-21 02:00S 07°22' W 175°02'0 0.0 30.8
2016-May-21 01:00S 07°22' W 175°02'1 0.2 31.0
2016-May-20 20:00S 07°23' W 175°01'1 0.1 30.3
2016-May-20 16:00S 07°22' W 175°02'1 0.4 30.2
2016-May-20 13:00S 07°23' W 175°01'1 0.2 30.2
2016-May-20 09:00S 07°24' W 175°01'1 0.5 30.3
2016-May-20 08:00S 07°24' W 175°01'1 0.4 30.3
2016-May-20 06:00S 07°24' W 175°02'1 1.0 30.4
2016-May-20 05:00S 07°23' W 175°03'0 0.0 30.4
2016-May-20 04:00S 07°23' W 175°03'1 0.5 30.5
2016-May-20 02:00S 07°23' W 175°04'0 0.0 30.5
2016-May-20 01:00S 07°23' W 175°04'1 0.1 30.7
2016-May-19 20:00S 07°23' W 175°03'1 0.5 30.2
2016-May-19 19:00S 07°23' W 175°04'1 0.4 30.2
2016-May-19 17:00S 07°23' W 175°04'1 1.4 30.2
2016-May-19 16:00S 07°21' W 175°04'1 0.2 30.2
2016-May-19 13:00S 07°21' W 175°05'1 0.2 30.2
2016-May-19 09:00S 07°21' W 175°05'0 0.0 30.2
2016-May-19 08:00S 07°21' W 175°05'2 0.7 30.2
2016-May-19 05:00S 07°20' W 175°04'1 0.7 30.2
2016-May-19 04:00S 07°19' W 175°04'1 0.6 30.2
2016-May-19 02:00S 07°18' W 175°05'1 0.1 30.2
2016-May-18 20:00S 07°18' W 175°06'1 0.4 30.3
2016-May-18 18:00S 07°17' W 175°06'2 1.2 30.3
2016-May-18 16:00S 07°15' W 175°06'2 0.7 30.3
2016-May-18 13:00S 07°13' W 175°07'1 0.3 30.3
2016-May-18 08:00S 07°12' W 175°06'2 0.6 30.3
2016-May-18 05:00S 07°10' W 175°07'1 1.5 30.4
2016-May-18 04:00S 07°09' W 175°07'4 0.5 30.4
2016-May-17 20:00S 07°05' W 175°06'0 0.3 30.3
2016-May-17 19:00S 07°05' W 175°05'1 0.5 30.3
2016-May-17 17:00S 07°04' W 175°05'2 2.0 30.3
2016-May-17 16:00S 07°02' W 175°04'4 1.8 30.3
2016-May-17 14:00S 07°00' W 175°00'0 0.0 30.3
2016-May-17 10:00S 07°00' W 175°00'1 0.6 30.3
2016-May-17 09:00S 07°01' W 174°60'0 0.1 30.4
2016-May-17 08:00S 07°01' W 174°60'1 0.5 30.4
2016-May-17 06:00S 06°60' W 174°60'1 0.6 30.4
2016-May-17 05:00S 06°60' W 174°59'2 0.7 30.5
2016-May-17 02:00S 06°59' W 174°57'1 0.6 30.5
2016-May-17 01:00S 06°60' W 174°57'2 0.6 30.5
2016-May-16 22:00S 06°58' W 174°56'0 0.0 30.4
2016-May-16 20:00S 06°58' W 174°56'1 0.4 30.3
2016-May-16 17:00S 06°58' W 174°55'0 0.0 30.3
2016-May-16 16:00S 06°58' W 174°55'1 0.5 30.3
2016-May-16 14:00S 06°57' W 174°54'0 0.0 30.3
2016-May-16 10:00S 06°57' W 174°54'1 0.4 30.3
2016-May-16 08:00S 06°58' W 174°55'   30.4

Dump ship's entire track history